Portada
METAR-TAF:

METAR-TAF

Aeroports :

Foggia, Itàlia

latitud: 41-32N, longitud: 015-43E, altitud: 57 m

Observació

L'informe es va fer fa 1 hora i 12 minuts, a les 22:55 UTC
Vent 10 kt del Oest/Nord-Oest
Temperatura 28°C
Humitat 74%
Pressió 1015 hPa
Visibilitat 10 km o més
sense núvols per sota de 1500 mi sense presència de cumulonimbus.

METAR: LIBA 182255Z 29010KT CAVOK 28/23 Q1015 RMK SKC VIS MIN 9999 WIND THR11 29010KT WIND THR29 /////KT BLU

Hora: 02:07 (00:07 UTC)

Pronòstic

L'informe es va fer fa 1 hora i 7 minuts, a les 23:00 UTC
Pronòstic vàlid del 19 a les 00 UTC al 19 a les 09 UTC
Vent 8 kt del Oest
Visibilitat 10 km o més
sense núvols per sota de 1500 mi sense presència de cumulonimbus.

TAF: LIBA 182300Z 1900/1909 28008KT CAVOK

Observacions i pronòstics meteorològics de més de 4000 aeroports (METAR i TAF).

Les estacions disponibles són els punts grocs i vermells al mapa.

Posi el ratolí al punt desitjat per veure el nom de l'estació.

Feu clic per veure les observacions i els pronòstics meteorològics.

Per canviar el mapa: feu clic els botons verds amb una creu de color negre per apropar; al botó verd amb un guió per allunyar la imatge; o en les fletxes verdes per a mapes adjacents.


METAR-TAF: